Time;durP1;ratioP1;P1;durP2;ratioP2;P2;SDS_P1;SDS_P2;PMS_P1;PMS_P2;Temp;Humidity;BMP_temperature;BMP_pressure;BME280_temperature;BME280_humidity;BME280_pressure;Samples;Min_cycle;Max_cycle;Signal;HPM_P1;HPM_P2
2022/07/13 00:02:19;;;;;;;1.83;1.07;;;;;;;16.37;82.96;101583.19;5074666;28;20477;-67
2022/07/13 00:04:45;;;;;;;1.37;0.93;;;;;;;16.29;82.98;101578.50;5074576;28;20521;-67
2022/07/13 00:07:12;;;;;;;1.40;1.00;;;;;;;16.25;83.56;101596.66;5074512;28;20467;-67
2022/07/13 00:09:38;;;;;;;1.30;0.80;;;;;;;16.32;82.91;101591.53;5074313;28;20460;-67
2022/07/13 00:12:05;;;;;;;1.40;1.00;;;;;;;16.34;82.77;101586.56;5074049;28;20912;-67
2022/07/13 00:14:32;;;;;;;1.00;0.80;;;;;;;16.37;82.63;101587.84;5074461;28;20520;-67
2022/07/13 00:16:59;;;;;;;1.00;0.63;;;;;;;16.39;82.15;101591.91;5074033;28;20564;-67
2022/07/13 00:19:27;;;;;;;2.77;1.37;;;;;;;16.38;82.39;101584.81;5074290;28;20527;-68
2022/07/13 00:21:54;;;;;;;1.27;0.87;;;;;;;16.29;83.49;101575.78;5074032;28;20883;-67
2022/07/13 00:24:21;;;;;;;1.10;0.77;;;;;;;16.41;82.56;101577.91;5074171;28;20489;-66
2022/07/13 00:26:48;;;;;;;1.70;0.90;;;;;;;16.46;82.82;101572.28;5073787;28;20544;-67
2022/07/13 00:29:15;;;;;;;0.90;0.70;;;;;;;16.46;83.33;101566.81;5074162;28;20472;-67
2022/07/13 00:31:41;;;;;;;1.63;1.07;;;;;;;16.45;82.77;101567.94;5073937;28;20517;-67
2022/07/13 00:34:08;;;;;;;1.50;1.00;;;;;;;16.48;82.99;101566.53;5074001;28;20540;-67
2022/07/13 00:36:37;;;;;;;1.10;0.80;;;;;;;16.48;83.12;101570.06;5073945;28;20500;-67
2022/07/13 00:39:04;;;;;;;1.60;1.10;;;;;;;16.53;80.55;101567.16;5073528;28;20445;-67
2022/07/13 00:41:30;;;;;;;1.40;1.23;;;;;;;16.51;78.48;101565.88;5073890;28;20438;-68
2022/07/13 00:44:07;;;;;;;1.63;1.27;;;;;;;16.50;77.97;101570.53;5073868;28;20866;-67
2022/07/13 00:46:34;;;;;;;1.20;0.83;;;;;;;16.44;78.29;101563.59;5073524;28;21053;-67
2022/07/13 00:49:01;;;;;;;1.27;0.87;;;;;;;16.39;80.05;101567.28;5073750;28;20441;-67
2022/07/13 00:51:28;;;;;;;1.50;0.83;;;;;;;16.38;81.58;101560.22;5073733;28;20473;-68
2022/07/13 00:53:57;;;;;;;2.40;1.03;;;;;;;16.46;82.08;101553.13;5073736;28;20533;-68
2022/07/13 00:56:25;;;;;;;1.43;1.10;;;;;;;16.52;82.54;101545.63;5073348;28;20911;-71
2022/07/13 00:58:52;;;;;;;1.23;0.90;;;;;;;16.55;82.39;101553.16;5073425;28;20483;-70
2022/07/13 01:01:19;;;;;;;1.67;1.13;;;;;;;16.57;82.90;101548.19;5073688;28;20528;-70
2022/07/13 01:03:45;;;;;;;1.13;1.00;;;;;;;16.67;82.58;101552.56;5073642;28;20875;-70
2022/07/13 01:06:12;;;;;;;1.83;1.00;;;;;;;16.68;82.86;101549.50;5073574;28;20493;-70
2022/07/13 01:08:39;;;;;;;1.50;0.80;;;;;;;16.71;82.25;101543.41;5072923;28;20437;-69
2022/07/13 01:11:08;;;;;;;1.73;0.90;;;;;;;16.78;82.38;101542.97;5072547;28;20519;-69
2022/07/13 01:13:35;;;;;;;1.83;1.00;;;;;;;16.77;82.54;101544.06;5073298;28;20499;-70
2022/07/13 01:16:03;;;;;;;1.23;1.00;;;;;;;16.75;82.40;101547.16;5072958;28;21077;-70
2022/07/13 01:18:31;;;;;;;1.50;1.10;;;;;;;16.81;82.67;101539.59;5073088;28;20872;-70
2022/07/13 01:20:58;;;;;;;1.00;0.63;;;;;;;16.82;82.54;101542.03;5073537;28;20822;-70
2022/07/13 01:23:27;;;;;;;2.83;0.93;;;;;;;16.84;82.48;101547.97;5073357;28;20524;-70
2022/07/13 01:25:56;;;;;;;1.83;1.17;;;;;;;16.87;82.92;101552.00;5072913;28;20544;-69
2022/07/13 01:28:23;;;;;;;1.30;1.00;;;;;;;16.86;83.01;101551.16;5073311;28;20481;-70
2022/07/13 01:30:50;;;;;;;1.10;0.80;;;;;;;16.86;81.87;101551.16;5072864;28;20865;-69
2022/07/13 01:33:17;;;;;;;1.67;1.13;;;;;;;16.89;79.40;101550.53;5073277;28;20452;-70
2022/07/13 01:35:43;;;;;;;1.20;0.80;;;;;;;16.77;79.00;101544.88;5072777;28;20549;-69
2022/07/13 01:38:11;;;;;;;2.30;0.70;;;;;;;16.76;78.98;101540.53;5073197;28;20477;-69
2022/07/13 01:40:41;;;;;;;1.37;1.00;;;;;;;16.76;79.40;101545.22;5073228;28;20441;-68
2022/07/13 01:43:08;;;;;;;2.00;1.10;;;;;;;16.76;81.87;101543.28;5073009;28;20428;-69
2022/07/13 01:45:35;;;;;;;2.17;1.03;;;;;;;16.77;82.39;101536.66;5073065;28;20441;-69
2022/07/13 01:48:02;;;;;;;1.60;1.03;;;;;;;16.81;82.63;101537.66;5073072;28;20448;-69
2022/07/13 01:50:28;;;;;;;2.87;0.90;;;;;;;16.84;83.01;101531.53;5072988;28;20443;-69
2022/07/13 01:52:55;;;;;;;1.30;0.80;;;;;;;16.90;83.17;101518.50;5073045;28;20442;-69
2022/07/13 01:55:22;;;;;;;0.90;0.60;;;;;;;16.92;83.40;101501.78;5072905;28;20540;-70
2022/07/13 01:57:56;;;;;;;1.80;1.30;;;;;;;16.82;84.41;101511.91;5072740;28;20536;-69
2022/07/13 02:00:23;;;;;;;1.50;1.10;;;;;;;16.80;84.07;101514.16;5072974;28;20452;-70
2022/07/13 02:02:50;;;;;;;1.47;1.17;;;;;;;16.85;84.06;101511.25;5073066;28;20487;-68
2022/07/13 02:05:18;;;;;;;1.13;0.80;;;;;;;16.85;84.46;101514.00;5073070;28;20532;-69
2022/07/13 02:07:45;;;;;;;1.30;1.03;;;;;;;16.89;84.05;101519.63;5072711;28;20472;-69
2022/07/13 02:10:13;;;;;;;1.20;0.90;;;;;;;16.94;83.51;101524.94;5072847;28;20472;-69
2022/07/13 02:12:40;;;;;;;8.93;1.40;;;;;;;16.94;83.74;101521.41;5072495;28;20571;-69
2022/07/13 02:15:10;;;;;;;2.10;0.80;;;;;;;16.98;84.31;101514.97;5072574;28;20487;-69
2022/07/13 02:17:36;;;;;;;1.33;0.93;;;;;;;17.00;83.33;101517.38;5072432;28;20560;-69
2022/07/13 02:20:04;;;;;;;1.93;1.03;;;;;;;17.00;83.96;101510.00;5072530;28;21041;-69
2022/07/13 02:22:41;;;;;;;0.97;0.60;;;;;;;17.00;84.48;101514.63;5076285;28;20491;-69
2022/07/13 02:25:09;;;;;;;1.17;0.80;;;;;;;17.03;84.42;101506.59;5076641;28;20507;-69
2022/07/13 02:27:36;;;;;;;2.13;1.10;;;;;;;17.05;84.44;101514.50;5076147;28;20556;-70
2022/07/13 02:30:03;;;;;;;1.93;1.13;;;;;;;16.98;84.84;101506.75;5076337;28;20816;-69
2022/07/13 02:32:31;;;;;;;1.77;1.33;;;;;;;17.03;83.97;101514.00;5076438;28;20565;-70
2022/07/13 02:34:58;;;;;;;1.40;1.00;;;;;;;17.02;84.26;101510.47;5076380;28;20528;-69
2022/07/13 02:37:24;;;;;;;2.20;1.10;;;;;;;17.07;83.37;101506.75;5076293;28;20468;-67
2022/07/13 02:39:51;;;;;;;1.30;0.90;;;;;;;17.10;83.55;101501.44;5076325;28;20477;-68
2022/07/13 02:42:18;;;;;;;1.20;0.80;;;;;;;17.08;84.39;101505.63;5076244;28;20437;-69
2022/07/13 02:44:44;;;;;;;2.30;1.00;;;;;;;17.07;84.48;101501.28;5076194;28;20527;-69
2022/07/13 02:47:12;;;;;;;1.30;0.90;;;;;;;17.09;84.64;101499.06;5076117;28;20552;-68
2022/07/13 02:49:40;;;;;;;1.40;0.80;;;;;;;17.10;84.96;101500.66;5076069;28;20449;-66
2022/07/13 02:52:07;;;;;;;1.17;0.70;;;;;;;17.07;84.94;101501.28;5075723;28;20519;-68
2022/07/13 02:54:34;;;;;;;1.20;1.00;;;;;;;17.04;85.18;101499.97;5076065;28;20528;-69
2022/07/13 02:57:00;;;;;;;2.37;1.30;;;;;;;16.99;85.84;101502.09;5075582;28;20907;-68
2022/07/13 02:59:27;;;;;;;1.30;0.70;;;;;;;17.02;85.54;101506.94;5075872;28;20524;-69
2022/07/13 03:01:53;;;;;;;2.87;1.57;;;;;;;16.98;86.13;101495.00;5075865;28;20524;-68
2022/07/13 03:04:20;;;;;;;1.63;1.07;;;;;;;17.01;83.85;101497.13;5075789;28;20815;-68
2022/07/13 03:06:48;;;;;;;1.67;1.07;;;;;;;17.04;80.46;101493.72;5075768;28;20552;-70
2022/07/13 03:09:14;;;;;;;1.83;1.20;;;;;;;16.98;79.16;101498.53;5075491;28;20473;-68
2022/07/13 03:11:41;;;;;;;1.30;1.00;;;;;;;16.96;79.29;101497.28;5075691;28;20480;-68
2022/07/13 03:14:08;;;;;;;2.63;1.50;;;;;;;16.90;81.10;101491.94;5075680;28;20481;-68
2022/07/13 03:16:34;;;;;;;1.30;0.70;;;;;;;16.89;82.89;101490.34;5075106;28;20556;-69
2022/07/13 03:19:01;;;;;;;1.23;0.73;;;;;;;16.86;84.40;101490.97;5075596;28;20490;-68
2022/07/13 03:21:28;;;;;;;1.80;1.07;;;;;;;16.93;85.02;101489.69;5075484;28;20528;-68
2022/07/13 03:23:57;;;;;;;1.53;1.00;;;;;;;16.96;85.73;101480.84;5075544;28;20445;-68
2022/07/13 03:26:23;;;;;;;1.23;0.70;;;;;;;16.98;85.46;101481.31;5075020;28;20496;-69
2022/07/13 03:28:50;;;;;;;2.13;1.13;;;;;;;17.00;85.31;101487.25;5075456;28;20548;-69
2022/07/13 03:31:17;;;;;;;1.30;1.10;;;;;;;17.03;85.39;101487.44;5074845;28;20437;-67
2022/07/13 03:33:44;;;;;;;1.87;1.53;;;;;;;17.01;86.48;101480.69;5074203;28;20528;-68
2022/07/13 03:36:10;;;;;;;1.17;0.70;;;;;;;17.05;86.26;101487.13;5075253;28;20465;-69
2022/07/13 03:38:38;;;;;;;1.70;0.80;;;;;;;17.09;86.08;101477.16;5075065;28;20480;-66
2022/07/13 03:41:06;;;;;;;2.13;1.33;;;;;;;17.06;86.56;101481.31;5075526;28;20528;-68
2022/07/13 03:43:33;;;;;;;1.60;1.00;;;;;;;17.12;86.97;101485.50;5074789;28;20984;-67
2022/07/13 03:45:59;;;;;;;1.83;1.00;;;;;;;17.17;86.84;101481.78;5074644;28;20540;-67
2022/07/13 03:48:26;;;;;;;1.43;1.13;;;;;;;17.23;86.79;101474.22;5075057;28;20532;-69
2022/07/13 03:50:52;;;;;;;1.20;1.10;;;;;;;17.22;85.27;101480.81;5074978;28;20532;-67
2022/07/13 03:53:19;;;;;;;2.17;1.00;;;;;;;17.18;83.59;101480.69;5074807;28;20492;-67
2022/07/13 03:55:46;;;;;;;3.33;1.23;;;;;;;17.17;82.83;101483.72;5074804;28;20552;-68
2022/07/13 03:58:14;;;;;;;1.63;0.90;;;;;;;17.15;82.88;101478.59;5074563;28;21050;-67
2022/07/13 04:00:40;;;;;;;1.23;0.87;;;;;;;17.19;83.33;101471.34;5074728;28;20814;-67
2022/07/13 04:03:07;;;;;;;7.13;1.50;;;;;;;17.23;84.91;101466.81;5074491;28;20947;-67
2022/07/13 04:05:34;;;;;;;2.27;1.20;;;;;;;17.26;86.03;101460.69;5074166;28;20529;-68
2022/07/13 04:08:00;;;;;;;2.03;1.07;;;;;;;17.32;86.32;101453.13;5074765;28;20468;-67
2022/07/13 04:10:27;;;;;;;4.80;1.63;;;;;;;17.42;86.57;101462.91;5074561;28;20536;-66
2022/07/13 04:12:53;;;;;;;2.03;1.03;;;;;;;17.46;87.65;101458.41;5074443;28;20492;-64
2022/07/13 04:15:21;;;;;;;3.40;0.90;;;;;;;17.53;87.16;101464.16;5074336;28;20452;-64
2022/07/13 04:17:48;;;;;;;1.20;1.00;;;;;;;17.56;87.19;101460.78;5099677;22;20481;-70
2022/07/13 04:20:15;;;;;;;3.30;1.90;;;;;;;17.58;86.88;101464.00;5074065;28;20794;-70
2022/07/13 04:22:41;;;;;;;2.53;1.70;;;;;;;17.60;87.41;101478.19;5074282;28;20529;-69
2022/07/13 04:25:08;;;;;;;1.47;1.13;;;;;;;17.69;87.25;101468.00;5074235;28;20492;-70
2022/07/13 04:27:35;;;;;;;2.27;1.13;;;;;;;17.79;87.41;101469.59;5074035;28;20437;-70
2022/07/13 04:30:02;;;;;;;1.63;0.97;;;;;;;17.85;87.70;101471.84;5073765;28;20437;-70
2022/07/13 04:32:30;;;;;;;2.70;1.47;;;;;;;17.92;87.77;101465.03;5073653;28;20856;-70
2022/07/13 04:34:57;;;;;;;4.00;2.47;;;;;;;17.96;87.97;101466.00;5074029;28;20532;-70
2022/07/13 04:37:23;;;;;;;2.27;1.60;;;;;;;18.01;87.88;101465.81;5073895;28;20449;-70
2022/07/13 04:39:50;;;;;;;2.90;0.97;;;;;;;18.04;87.35;101463.22;5073848;28;20457;-70
2022/07/13 04:42:16;;;;;;;1.50;1.20;;;;;;;18.13;87.18;101465.91;5073607;28;20998;-70
2022/07/13 04:44:43;;;;;;;2.87;1.70;;;;;;;18.23;87.55;101460.03;5073620;28;20528;-70
2022/07/13 04:47:10;;;;;;;3.07;1.43;;;;;;;18.29;87.67;101453.25;5073803;28;20437;-70
2022/07/13 04:49:38;;;;;;;1.33;0.97;;;;;;;18.31;87.69;101448.22;5073650;28;20469;-70
2022/07/13 04:52:05;;;;;;;1.73;1.43;;;;;;;18.37;86.37;101468.03;5073569;28;20927;-71
2022/07/13 04:54:32;;;;;;;1.13;0.80;;;;;;;18.44;87.05;101462.81;5073309;28;20951;-71
2022/07/13 04:56:59;;;;;;;2.77;1.43;;;;;;;18.51;86.89;101467.81;5073336;28;20458;-71
2022/07/13 04:59:25;;;;;;;3.90;1.23;;;;;;;18.58;86.49;101465.31;5073469;28;20500;-71
2022/07/13 05:01:53;;;;;;;1.40;1.00;;;;;;;18.63;85.94;101470.59;5073263;28;21013;-71
2022/07/13 05:04:20;;;;;;;1.73;1.23;;;;;;;18.67;85.08;101469.59;5073525;28;20511;-70
2022/07/13 05:06:48;;;;;;;1.47;1.03;;;;;;;18.76;84.48;101477.78;5073152;28;20965;-71
2022/07/13 05:09:15;;;;;;;3.63;1.30;;;;;;;18.80;84.22;101466.97;5073111;28;20501;-71
2022/07/13 05:11:41;;;;;;;1.33;0.97;;;;;;;18.88;82.53;101460.59;5073050;28;20484;-70
2022/07/13 05:14:08;;;;;;;2.00;1.10;;;;;;;18.95;83.67;101468.28;5073409;28;20528;-70
2022/07/13 05:16:34;;;;;;;1.80;1.10;;;;;;;19.03;85.01;101470.16;5073352;28;20518;-70
2022/07/13 05:19:01;;;;;;;1.47;1.03;;;;;;;19.06;84.73;101466.75;5072925;28;20469;-70
2022/07/13 05:21:28;;;;;;;1.40;1.03;;;;;;;19.08;85.57;101465.28;5072974;28;21043;-70
2022/07/13 05:23:56;;;;;;;4.60;0.97;;;;;;;19.17;86.51;101459.72;5072973;28;20923;-70
2022/07/13 05:26:22;;;;;;;1.20;0.93;;;;;;;19.25;87.31;101450.56;5073157;28;20443;-71
2022/07/13 05:28:49;;;;;;;1.80;1.10;;;;;;;19.30;87.02;101453.13;5072830;28;21065;-71
2022/07/13 05:31:15;;;;;;;3.33;1.60;;;;;;;19.38;87.58;101454.94;5073182;28;20875;-70
2022/07/13 05:33:42;;;;;;;2.87;1.97;;;;;;;19.41;87.82;101454.28;5073134;28;20488;-69
2022/07/13 05:36:09;;;;;;;1.80;1.17;;;;;;;19.47;87.71;101454.06;5072806;28;21037;-70
2022/07/13 05:38:36;;;;;;;2.63;0.90;;;;;;;19.50;87.52;101459.69;5073041;28;20462;-70
2022/07/13 05:41:04;;;;;;;2.00;1.10;;;;;;;19.58;85.19;101463.47;5073144;28;20539;-70
2022/07/13 05:43:31;;;;;;;1.60;1.10;;;;;;;19.64;82.68;101462.13;5073036;28;20520;-70
2022/07/13 05:45:57;;;;;;;1.00;0.80;;;;;;;19.72;82.20;101466.72;5073038;28;20532;-70
2022/07/13 05:48:24;;;;;;;1.30;1.00;;;;;;;19.80;81.51;101481.53;5072920;28;20461;-70
2022/07/13 05:50:51;;;;;;;3.07;1.20;;;;;;;19.91;81.49;101475.22;5073013;28;20441;-74
2022/07/13 05:53:19;;;;;;;1.00;0.70;;;;;;;19.99;82.47;101468.03;5072596;28;20852;-73
2022/07/13 05:55:45;;;;;;;1.97;1.37;;;;;;;20.08;80.09;101470.66;5073449;28;20931;-72
2022/07/13 05:58:14;;;;;;;1.63;1.00;;;;;;;20.13;79.50;101462.16;5076900;28;20914;-72
2022/07/13 06:00:40;;;;;;;2.07;1.23;;;;;;;20.19;76.28;101471.81;5076928;28;20448;-71
2022/07/13 06:03:07;;;;;;;1.30;0.83;;;;;;;20.25;76.27;101475.94;5076908;28;20902;-71
2022/07/13 06:05:34;;;;;;;0.97;0.70;;;;;;;20.31;75.80;101479.25;5076828;28;20503;-72
2022/07/13 06:08:00;;;;;;;1.50;1.03;;;;;;;20.36;74.54;101466.06;5076725;28;20547;-72
2022/07/13 06:10:27;;;;;;;1.40;0.80;;;;;;;20.50;75.17;101470.44;5076444;28;20951;-72
2022/07/13 06:12:54;;;;;;;1.70;1.10;;;;;;;20.59;76.41;101465.59;5076342;28;21021;-72
2022/07/13 06:15:22;;;;;;;1.00;0.70;;;;;;;20.70;76.33;101457.66;5076635;28;20568;-72
2022/07/13 06:17:49;;;;;;;1.87;1.23;;;;;;;20.82;75.66;101466.69;5076435;28;20552;-72
2022/07/13 06:20:17;;;;;;;1.10;0.80;;;;;;;20.90;74.83;101465.75;5076683;28;20482;-71
2022/07/13 06:23:09;;;;;;;1.20;0.80;;;;;;;21.05;75.30;101458.69;5076228;28;20437;-72
2022/07/13 06:25:30;;;;;;;1.40;0.83;;;;;;;21.12;74.38;101455.34;5076038;28;20441;-72
2022/07/13 06:27:57;;;;;;;3.10;1.00;;;;;;;21.22;73.72;101448.50;5076519;28;20552;-72
2022/07/13 06:30:24;;;;;;;1.60;1.00;;;;;;;21.29;73.04;101455.00;5076061;28;20447;-71
2022/07/13 06:32:51;;;;;;;2.70;0.80;;;;;;;21.44;72.85;101458.19;5076292;28;20564;-74
2022/07/13 06:35:18;;;;;;;1.63;1.10;;;;;;;21.50;72.47;101454.78;5076275;28;20447;-74
2022/07/13 06:37:44;;;;;;;1.80;1.03;;;;;;;21.61;71.80;101453.13;5076211;28;20449;-74
2022/07/13 06:40:12;;;;;;;1.93;1.00;;;;;;;21.69;70.07;101459.59;5076279;28;20527;-74
2022/07/13 06:42:39;;;;;;;1.10;1.00;;;;;;;21.78;69.75;101459.44;5075864;28;21013;-74
2022/07/13 06:45:07;;;;;;;1.70;0.80;;;;;;;21.87;70.86;101447.09;5076101;28;20441;-74
2022/07/13 06:47:34;;;;;;;1.70;1.10;;;;;;;21.97;70.66;101439.41;5076042;28;20488;-74
2022/07/13 06:50:01;;;;;;;1.30;0.80;;;;;;;22.14;71.43;101447.34;5075685;28;20905;-73
2022/07/13 06:52:28;;;;;;;1.40;1.20;;;;;;;22.24;70.91;101441.28;5075874;28;20576;-74
2022/07/13 06:54:54;;;;;;;1.10;0.83;;;;;;;22.29;70.98;101440.19;5075954;28;20866;-74
2022/07/13 06:57:21;;;;;;;1.40;1.03;;;;;;;22.34;70.60;101426.91;5075898;28;20530;-74
2022/07/13 06:59:48;;;;;;;1.90;1.17;;;;;;;22.39;70.05;101432.13;5075885;28;20548;-72
2022/07/13 07:02:14;;;;;;;1.43;0.87;;;;;;;22.48;69.41;101428.38;5075694;28;20477;-72
2022/07/13 07:04:43;;;;;;;1.30;0.80;;;;;;;22.62;69.42;101417.63;5075718;28;20437;-72
2022/07/13 07:07:09;;;;;;;2.13;0.90;;;;;;;22.74;70.81;101413.94;5075360;28;20962;-73
2022/07/13 07:09:37;;;;;;;1.10;0.90;;;;;;;22.83;67.82;101412.53;5075641;28;20503;-74
2022/07/13 07:12:04;;;;;;;1.90;0.90;;;;;;;22.95;67.02;101408.06;5075615;28;20536;-74
2022/07/13 07:14:32;;;;;;;1.37;1.00;;;;;;;23.03;65.61;101409.81;5075559;28;20554;-74
2022/07/13 07:16:59;;;;;;;3.97;0.80;;;;;;;23.12;65.81;101407.59;5075809;28;20448;-78
2022/07/13 07:19:26;;;;;;;0.97;0.77;;;;;;;23.23;67.01;101397.53;5078152;28;20488;-76
2022/07/13 07:21:54;;;;;;;1.50;1.03;;;;;;;23.18;65.29;101403.38;5075115;28;20451;-77
2022/07/13 07:24:21;;;;;;;2.80;1.30;;;;;;;23.24;66.18;101407.44;5074777;28;20441;-75
2022/07/13 07:26:48;;;;;;;1.37;0.90;;;;;;;23.36;66.24;101414.75;5074032;28;20826;-76
2022/07/13 07:29:15;;;;;;;1.07;0.70;;;;;;;23.42;63.56;101400.25;5075420;28;20483;-82
2022/07/13 07:31:41;;;;;;;2.17;1.10;;;;;;;23.53;63.49;101410.69;5074840;28;20549;-73
2022/07/13 07:34:08;;;;;;;1.10;0.80;;;;;;;23.59;62.51;101403.69;5074209;28;20488;-75
2022/07/13 07:36:35;;;;;;;1.60;0.80;;;;;;;23.63;62.15;101404.53;5074132;28;20449;-74
2022/07/13 07:39:03;;;;;;;1.00;0.80;;;;;;;23.60;61.44;101405.28;5073961;28;20465;-75
2022/07/13 07:41:30;;;;;;;0.90;0.70;;;;;;;23.67;60.80;101403.47;5073760;28;20520;-73
2022/07/13 07:43:57;;;;;;;1.30;1.00;;;;;;;23.76;62.25;101396.88;5073528;28;20843;-74
2022/07/13 07:46:23;;;;;;;1.20;0.83;;;;;;;23.86;59.40;101393.47;5074210;28;20445;-75
2022/07/13 07:48:50;;;;;;;0.90;0.60;;;;;;;23.94;59.96;101394.38;5073866;28;20461;-72
2022/07/13 07:51:16;;;;;;;1.43;0.60;;;;;;;24.06;60.65;101405.25;5073955;28;20465;-74
2022/07/13 07:53:43;;;;;;;1.63;0.80;;;;;;;24.17;59.17;101403.41;5073476;28;20563;-73
2022/07/13 07:56:11;;;;;;;1.50;0.87;;;;;;;24.20;58.14;101390.81;5073847;28;20445;-74
2022/07/13 07:58:38;;;;;;;2.73;1.20;;;;;;;24.28;58.45;101396.06;5073794;28;20503;-73
2022/07/13 08:01:06;;;;;;;1.20;0.80;;;;;;;24.37;58.43;101393.84;5073507;28;20931;-75
2022/07/13 08:03:33;;;;;;;1.63;1.00;;;;;;;24.39;57.39;101397.06;5073517;28;20472;-76
2022/07/13 08:06:00;;;;;;;1.30;0.83;;;;;;;24.45;57.10;101396.72;5073853;28;20527;-73
2022/07/13 08:08:26;;;;;;;1.37;0.87;;;;;;;24.52;57.20;101394.03;5073563;28;20493;-73
2022/07/13 08:10:54;;;;;;;1.00;0.80;;;;;;;24.58;56.41;101389.75;5073320;28;20964;-74
2022/07/13 08:13:22;;;;;;;1.50;1.00;;;;;;;24.62;55.92;101380.31;5073470;28;20519;-76
2022/07/13 08:15:49;;;;;;;0.90;0.70;;;;;;;24.69;56.03;101382.34;5073570;28;20529;-75
2022/07/13 08:18:15;;;;;;;1.60;1.10;;;;;;;24.79;54.46;101381.72;5035065;28;1083735;-75
2022/07/13 08:20:42;;;;;;;6.63;1.33;;;;;;;24.80;54.17;101379.72;5074228;28;20282;-74
2022/07/13 08:25:49;;;;;;;0.97;0.60;;;;;;;25.09;53.79;101362.22;5073650;28;20438;-75
2022/07/13 08:28:16;;;;;;;1.17;0.67;;;;;;;25.22;54.10;101370.28;5074071;28;20548;-75
2022/07/13 08:30:44;;;;;;;2.10;1.10;;;;;;;25.39;53.17;101367.66;5074089;28;20451;-75
2022/07/13 08:33:10;;;;;;;1.50;0.90;;;;;;;25.48;52.75;101355.44;5074119;28;20500;-75
2022/07/13 08:41:15;;;;;;;2.10;0.73;;;;;;;25.94;54.20;101358.56;5111067;27;20518;-74
2022/07/13 08:43:41;;;;;;;1.40;1.10;;;;;;;25.92;54.25;101347.84;5111076;28;20528;-74
2022/07/13 08:46:08;;;;;;;1.53;0.90;;;;;;;26.07;53.69;101356.25;5110737;28;20919;-73
2022/07/13 08:48:38;;;;;;;2.03;1.00;;;;;;;26.19;53.08;101355.13;5110658;28;20981;-73
2022/07/13 08:51:05;;;;;;;1.07;0.70;;;;;;;26.28;53.99;101348.03;5110700;28;20524;-73
2022/07/13 08:53:32;;;;;;;4.13;0.90;;;;;;;26.26;50.47;101342.09;5110940;28;20446;-74
2022/07/13 08:55:59;;;;;;;0.90;0.67;;;;;;;26.39;50.98;101342.53;5111007;28;20450;-74
2022/07/13 08:58:27;;;;;;;1.27;0.80;;;;;;;26.53;51.19;101347.38;5110742;28;20538;-74
2022/07/13 09:00:53;;;;;;;1.77;1.10;;;;;;;26.53;51.77;101347.38;5110776;28;20494;-73
2022/07/13 09:03:20;;;;;;;1.33;0.87;;;;;;;26.57;50.32;101348.97;5110744;28;20444;-74
2022/07/13 09:05:47;;;;;;;1.17;0.77;;;;;;;26.67;49.74;101350.19;5110431;28;20799;-73
2022/07/13 09:08:14;;;;;;;0.90;0.70;;;;;;;26.76;49.30;101345.06;5110639;28;20482;-75
2022/07/13 09:10:52;;;;;;;1.20;0.70;;;;;;;26.70;49.09;101348.63;5110689;28;20436;-74
2022/07/13 09:13:34;;;;;;;1.10;0.90;;;;;;;26.69;48.89;101347.00;5110347;28;20910;-74
2022/07/13 09:16:13;;;;;;;0.90;0.77;;;;;;;26.83;49.87;101338.72;5110437;28;20430;-74
2022/07/13 09:18:40;;;;;;;1.07;0.90;;;;;;;27.06;48.81;101330.03;5110477;28;20463;-74
2022/07/13 09:21:07;;;;;;;0.80;0.63;;;;;;;27.17;49.07;101336.41;5110353;28;20475;-72
2022/07/13 09:23:34;;;;;;;1.43;0.70;;;;;;;27.20;48.19;101334.81;5110343;28;20539;-74
2022/07/13 09:26:00;;;;;;;1.20;0.80;;;;;;;27.22;47.80;101333.22;5110377;28;20445;-74
2022/07/13 09:28:29;;;;;;;2.33;0.93;;;;;;;27.32;47.89;101331.66;5109897;28;20460;-74
2022/07/13 09:31:01;;;;;;;2.13;1.50;;;;;;;27.44;48.87;101333.22;5110228;28;20440;-74
2022/07/13 09:33:34;;;;;;;1.03;0.83;;;;;;;27.43;47.23;101326.84;5110105;28;20436;-74
2022/07/13 09:36:09;;;;;;;1.03;0.70;;;;;;;27.56;47.06;101327.25;5109922;28;20522;-73
2022/07/13 09:38:37;;;;;;;1.83;0.80;;;;;;;27.67;46.93;101325.25;5109820;28;20463;-72
2022/07/13 09:41:17;;;;;;;1.23;0.87;;;;;;;27.86;46.73;101322.06;5109699;28;20487;-75
2022/07/13 09:46:51;;;;;;;1.37;0.60;;;;;;;27.94;46.02;101322.03;5109884;28;20407;-74
2022/07/13 09:49:18;;;;;;;0.87;0.70;;;;;;;27.83;46.42;101302.56;5109818;28;20467;-75
2022/07/13 09:51:45;;;;;;;1.63;0.80;;;;;;;27.73;45.83;101312.53;5101096;28;20532;-74
2022/07/13 09:54:13;;;;;;;1.10;0.80;;;;;;;27.83;46.04;101317.28;5096249;28;20483;-74
2022/07/13 09:56:44;;;;;;;1.67;0.60;;;;;;;27.98;45.12;101322.81;5096171;28;20446;-74
2022/07/13 09:59:14;;;;;;;4.87;0.90;;;;;;;28.04;45.68;101318.41;5096049;28;20468;-74
2022/07/13 10:01:41;;;;;;;0.97;0.70;;;;;;;27.96;45.78;101314.06;5095782;28;21048;-74
2022/07/13 10:04:09;;;;;;;1.70;0.70;;;;;;;28.22;46.82;101316.34;5096070;28;20444;-74
2022/07/13 10:06:35;;;;;;;1.53;0.77;;;;;;;28.41;47.00;101312.31;5096055;28;20493;-74
2022/07/13 10:09:02;;;;;;;1.07;0.60;;;;;;;28.51;46.03;101313.44;5095934;28;20558;-74
2022/07/13 10:11:30;;;;;;;1.27;0.90;;;;;;;28.59;45.16;101326.16;5095966;28;20439;-74
2022/07/13 10:13:58;;;;;;;1.13;0.67;;;;;;;28.70;46.15;101312.97;5095842;28;20497;-74
2022/07/13 10:16:28;;;;;;;1.10;0.80;;;;;;;28.90;44.42;101305.63;5095947;28;20436;-74
2022/07/13 10:18:57;;;;;;;1.47;0.80;;;;;;;29.05;44.29;101311.16;5096134;28;20535;-74
2022/07/13 10:21:33;;;;;;;0.93;0.70;;;;;;;29.02;44.70;101298.81;5095719;28;20487;-74
2022/07/13 10:24:00;;;;;;;0.83;0.70;;;;;;;29.02;43.32;101312.75;5095738;28;20428;-74
2022/07/13 10:26:28;;;;;;;1.30;0.67;;;;;;;29.21;44.78;101305.03;5095651;28;20479;-74
2022/07/13 10:29:06;;;;;;;1.33;1.10;;;;;;;29.38;43.87;101307.66;5095118;28;20580;-74
2022/07/13 10:31:36;;;;;;;1.63;1.10;;;;;;;29.51;44.04;101304.34;5095559;28;20424;-74
2022/07/13 10:34:03;;;;;;;1.50;1.00;;;;;;;29.60;44.02;101308.28;5095384;28;20953;-74
2022/07/13 10:36:52;;;;;;;0.90;0.67;;;;;;;29.39;41.64;101306.44;5095427;28;20445;-75
2022/07/13 10:39:21;;;;;;;1.10;0.73;;;;;;;29.23;42.94;101306.22;5095485;28;20469;-75
2022/07/13 10:41:59;;;;;;;2.13;0.77;;;;;;;29.19;41.95;101311.03;5095447;28;20793;-74
2022/07/13 10:44:37;;;;;;;1.13;0.53;;;;;;;29.28;41.58;101305.78;5095001;28;20526;-75
2022/07/13 10:47:06;;;;;;;2.60;0.90;;;;;;;29.27;41.27;101303.41;5095073;28;20797;-74
2022/07/13 10:49:46;;;;;;;1.20;0.80;;;;;;;28.94;41.85;101299.25;5095388;28;20460;-75
2022/07/13 10:52:43;;;;;;;1.00;0.87;;;;;;;28.66;41.76;101296.25;5094977;28;20894;-75
2022/07/13 10:55:47;;;;;;;5.17;1.20;;;;;;;28.59;42.65;101303.84;5032801;28;20793;-74
2022/07/13 10:58:45;;;;;;;1.47;1.03;;;;;;;28.52;42.67;101306.69;5032567;28;20458;-74
2022/07/13 11:01:36;;;;;;;1.70;0.90;;;;;;;28.22;43.33;101296.06;5094930;28;20477;-73
2022/07/13 11:04:06;;;;;;;1.10;0.87;;;;;;;28.07;43.29;101298.91;5093634;28;20964;-75
2022/07/13 11:06:33;;;;;;;0.90;0.80;;;;;;;28.15;43.06;101289.31;5094608;28;20532;-75
2022/07/13 11:09:16;;;;;;;1.57;1.10;;;;;;;28.09;43.35;101285.34;5094711;28;20555;-74
2022/07/13 11:11:47;;;;;;;1.87;1.10;;;;;;;28.22;44.02;101291.28;5092745;28;20495;-74
2022/07/13 11:14:47;;;;;;;1.17;0.83;;;;;;;28.25;44.03;101289.69;5094575;28;20543;-74
2022/07/13 11:17:15;;;;;;;1.00;0.60;;;;;;;28.20;43.07;101285.34;5094386;28;20531;-74
2022/07/13 11:19:57;;;;;;;2.10;1.10;;;;;;;28.21;44.44;101292.47;5094441;28;20548;-74
2022/07/13 11:22:25;;;;;;;1.00;0.90;;;;;;;28.21;43.90;101288.91;5094282;28;20876;-74
2022/07/13 11:25:15;;;;;;;2.00;1.13;;;;;;;28.31;43.93;101290.84;5094520;28;20439;-74
2022/07/13 11:27:55;;;;;;;1.80;1.10;;;;;;;28.33;43.46;101280.88;5094153;28;20420;-74
2022/07/13 11:30:29;;;;;;;1.90;1.00;;;;;;;28.48;43.02;101284.41;5094046;28;20516;-74
2022/07/13 11:32:55;;;;;;;1.27;0.60;;;;;;;28.67;43.42;101283.09;5094483;28;20424;-74
2022/07/13 11:35:24;;;;;;;1.57;1.17;;;;;;;28.88;43.16;101262.63;5094393;28;20519;-74
2022/07/13 11:37:52;;;;;;;1.30;1.00;;;;;;;29.21;44.14;101269.53;5093879;28;20464;-74
2022/07/13 11:40:29;;;;;;;1.20;0.80;;;;;;;29.44;42.54;101259.75;5093782;28;20488;-74
2022/07/13 11:42:58;;;;;;;1.00;0.90;;;;;;;29.72;42.95;101253.09;5094173;28;20535;-75